createdAt,value
2018-01-05T00:00:21.134Z,2.87
2018-01-05T00:02:48.106Z,2.70
2018-01-05T00:05:14.283Z,3.93
2018-01-05T00:07:41.288Z,2.40
2018-01-05T00:10:07.467Z,3.23
2018-01-05T00:12:34.448Z,2.80
2018-01-05T00:15:00.626Z,3.30
2018-01-05T00:17:26.852Z,3.03
2018-01-05T00:19:53.057Z,2.90
2018-01-05T00:22:19.286Z,3.10
2018-01-05T00:24:45.554Z,3.70
2018-01-05T00:27:11.713Z,2.73
2018-01-05T00:29:38.659Z,3.43
2018-01-05T00:32:04.837Z,3.37
2018-01-05T00:34:31.051Z,4.40
2018-01-05T00:36:57.242Z,3.20
2018-01-05T00:39:24.184Z,4.00
2018-01-05T00:41:50.376Z,3.30
2018-01-05T00:44:16.541Z,2.80
2018-01-05T00:46:43.520Z,2.90
2018-01-05T00:49:09.678Z,2.20
2018-01-05T00:51:35.841Z,2.57
2018-01-05T00:54:02.775Z,2.97
2018-01-05T00:56:29.668Z,3.17
2018-01-05T00:58:55.822Z,2.57
2018-01-05T01:01:21.985Z,2.73
2018-01-05T01:03:48.127Z,4.20
2018-01-05T01:06:14.340Z,3.40
2018-01-05T01:08:40.538Z,2.70
2018-01-05T01:11:06.732Z,3.43
2018-01-05T01:13:32.940Z,2.83
2018-01-05T01:15:59.146Z,2.53
2018-01-05T01:18:25.270Z,2.70
2018-01-05T01:20:52.182Z,3.20
2018-01-05T01:23:19.126Z,3.20
2018-01-05T01:25:45.296Z,2.50
2018-01-05T01:28:11.555Z,2.60
2018-01-05T01:30:37.748Z,3.90
2018-01-05T01:33:03.972Z,2.40
2018-01-05T01:35:30.192Z,3.33
2018-01-05T01:37:57.102Z,3.30
2018-01-05T01:40:23.332Z,2.70
2018-01-05T01:42:50.291Z,2.90
2018-01-05T01:45:16.530Z,4.00
2018-01-05T01:47:42.763Z,2.47
2018-01-05T01:50:09.698Z,2.57
2018-01-05T01:52:35.913Z,3.00
2018-01-05T01:55:02.130Z,3.03
2018-01-05T01:57:28.342Z,2.70
2018-01-05T01:59:54.528Z,3.30
2018-01-05T02:02:21.469Z,2.80
2018-01-05T02:04:48.442Z,2.97
2018-01-05T02:07:14.579Z,3.33
2018-01-05T02:09:40.779Z,3.17
2018-01-05T02:12:06.960Z,3.57
2018-01-05T02:14:33.139Z,4.00
2018-01-05T02:16:59.350Z,4.37
2018-01-05T02:19:26.270Z,4.00
2018-01-05T02:21:52.401Z,3.23
2018-01-05T02:24:18.545Z,3.17
2018-01-05T02:26:45.486Z,3.50
2018-01-05T02:29:12.439Z,3.03
2018-01-05T02:31:39.389Z,3.20
2018-01-05T02:34:05.606Z,3.83
2018-01-05T02:36:32.555Z,3.70
2018-01-05T02:38:59.489Z,3.23
2018-01-05T02:41:26.387Z,3.07
2018-01-05T02:43:52.612Z,4.97
2018-01-05T02:46:18.827Z,2.90
2018-01-05T02:48:44.979Z,3.20
2018-01-05T02:51:11.228Z,4.47
2018-01-05T02:53:38.167Z,2.97
2018-01-05T02:56:05.089Z,3.23
2018-01-05T02:58:31.335Z,3.10
2018-01-05T03:00:57.547Z,3.70
2018-01-05T03:03:23.802Z,3.20
2018-01-05T03:05:50.710Z,3.67
2018-01-05T03:08:16.908Z,3.40
2018-01-05T03:10:43.812Z,3.90
2018-01-05T03:13:10.044Z,2.47
2018-01-05T03:15:36.220Z,3.83
2018-01-05T03:18:02.424Z,3.40
2018-01-05T03:20:29.366Z,2.27
2018-01-05T03:22:56.358Z,2.90
2018-01-05T03:25:22.600Z,3.47
2018-01-05T03:27:48.762Z,3.33
2018-01-05T03:30:15.016Z,3.00
2018-01-05T03:32:41.148Z,3.80
2018-01-05T03:35:07.371Z,3.20
2018-01-05T03:37:33.610Z,4.10
2018-01-05T03:39:59.823Z,2.60
2018-01-05T03:42:25.970Z,3.00
2018-01-05T03:44:52.222Z,2.50
2018-01-05T03:47:18.454Z,2.93
2018-01-05T03:49:44.593Z,3.10
2018-01-05T03:52:10.798Z,2.60
2018-01-05T03:54:36.966Z,3.13
2018-01-05T03:57:03.106Z,2.40
2018-01-05T03:59:30.008Z,2.57
2018-01-05T04:01:56.176Z,2.90
2018-01-05T04:04:23.113Z,2.63
2018-01-05T04:06:50.101Z,3.60
2018-01-05T04:09:16.346Z,3.00
2018-01-05T04:11:42.531Z,2.53
2018-01-05T04:14:09.452Z,3.40
2018-01-05T04:16:35.687Z,3.13
2018-01-05T04:19:02.660Z,3.33
2018-01-05T04:21:28.850Z,3.50
2018-01-05T04:23:55.077Z,3.03
2018-01-05T04:26:21.294Z,2.80
2018-01-05T04:28:48.237Z,2.80
2018-01-05T04:31:14.421Z,3.30
2018-01-05T04:33:40.651Z,2.63
2018-01-05T04:36:06.887Z,3.03
2018-01-05T04:38:33.062Z,2.50
2018-01-05T04:40:59.259Z,3.07
2018-01-05T04:43:25.448Z,2.50
2018-01-05T04:45:52.377Z,3.60
2018-01-05T04:48:19.331Z,3.47
2018-01-05T04:50:46.199Z,3.10
2018-01-05T04:53:12.461Z,2.60
2018-01-05T04:55:38.628Z,2.93
2018-01-05T04:58:05.521Z,3.33
2018-01-05T05:00:31.731Z,2.93
2018-01-05T05:02:57.955Z,3.10
2018-01-05T05:05:24.187Z,3.03
2018-01-05T05:07:50.432Z,2.60
2018-01-05T05:10:16.674Z,2.40
2018-01-05T05:12:42.923Z,2.67
2018-01-05T05:15:09.082Z,3.30
2018-01-05T05:17:35.983Z,2.70
2018-01-05T05:20:02.171Z,2.70
2018-01-05T05:22:28.414Z,2.60
2018-01-05T05:24:54.649Z,4.60
2018-01-05T05:27:20.891Z,2.60
2018-01-05T05:29:47.063Z,2.90
2018-01-05T05:32:14.074Z,3.30
2018-01-05T05:34:40.274Z,2.87
2018-01-05T05:37:06.452Z,3.23
2018-01-05T05:39:33.341Z,3.67
2018-01-05T05:41:59.551Z,3.50
2018-01-05T05:44:25.819Z,3.73
2018-01-05T05:46:52.026Z,4.27
2018-01-05T05:49:18.253Z,3.90
2018-01-05T05:51:44.411Z,3.13
2018-01-05T05:54:10.574Z,3.80
2018-01-05T05:56:36.784Z,2.63
2018-01-05T05:59:03.026Z,3.60
2018-01-05T06:01:29.918Z,2.93
2018-01-05T06:03:56.074Z,3.37
2018-01-05T06:06:22.222Z,2.93
2018-01-05T06:08:49.159Z,3.13
2018-01-05T06:11:21.374Z,8.53
2018-01-05T06:13:47.603Z,5.77
2018-01-05T06:16:13.775Z,3.80
2018-01-05T06:18:39.997Z,2.90
2018-01-05T06:21:06.196Z,3.37
2018-01-05T06:23:32.335Z,3.63
2018-01-05T06:25:58.501Z,2.90
2018-01-05T06:28:25.479Z,2.93
2018-01-05T06:30:51.657Z,3.57
2018-01-05T06:33:17.870Z,3.10
2018-01-05T06:35:43.994Z,3.03
2018-01-05T06:38:10.297Z,2.50
2018-01-05T06:40:36.524Z,3.70
2018-01-05T06:43:02.654Z,3.43
2018-01-05T06:45:28.857Z,4.93
2018-01-05T06:47:55.023Z,3.53
2018-01-05T06:50:21.183Z,3.70
2018-01-05T06:52:48.138Z,3.50
2018-01-05T06:55:16.307Z,3.03
2018-01-05T06:57:43.275Z,3.20
2018-01-05T07:00:09.440Z,3.70
2018-01-05T07:02:35.645Z,2.97
2018-01-05T07:05:01.816Z,3.60
2018-01-05T07:07:28.014Z,4.00
2018-01-05T07:09:54.217Z,4.00
2018-01-05T07:12:20.415Z,3.67
2018-01-05T07:14:47.326Z,3.30
2018-01-05T07:17:13.526Z,3.17
2018-01-05T07:19:39.807Z,4.03
2018-01-05T07:22:06.709Z,2.90
2018-01-05T07:24:32.939Z,2.63
2018-01-05T07:26:59.072Z,3.67
2018-01-05T07:29:25.407Z,3.20
2018-01-05T07:31:51.608Z,3.43
2018-01-05T07:34:17.792Z,3.17
2018-01-05T07:36:43.941Z,3.10
2018-01-05T07:39:10.907Z,3.90
2018-01-05T07:41:37.097Z,4.10
2018-01-05T07:44:03.334Z,2.70
2018-01-05T07:46:30.245Z,2.77
2018-01-05T07:48:56.420Z,3.80
2018-01-05T07:51:23.336Z,2.43
2018-01-05T07:53:49.516Z,3.30
2018-01-05T07:56:15.707Z,2.40
2018-01-05T07:58:42.696Z,2.93
2018-01-05T08:01:15.974Z,2.93
2018-01-05T08:03:42.120Z,2.90
2018-01-05T08:06:09.195Z,2.40
2018-01-05T08:08:35.382Z,2.80
2018-01-05T08:11:01.575Z,1.90
2018-01-05T08:13:28.571Z,2.07
2018-01-05T08:15:54.806Z,3.47
2018-01-05T08:18:21.015Z,2.10
2018-01-05T08:20:47.240Z,3.90
2018-01-05T08:23:13.488Z,2.33
2018-01-05T08:25:39.663Z,3.03
2018-01-05T08:28:06.690Z,2.70
2018-01-05T08:30:32.887Z,2.30
2018-01-05T08:32:59.066Z,3.07
2018-01-05T08:35:25.990Z,2.47
2018-01-05T08:37:53.937Z,3.63
2018-01-05T08:40:20.128Z,2.53
2018-01-05T08:42:46.345Z,2.70
2018-01-05T08:45:12.555Z,2.40
2018-01-05T08:47:39.511Z,1.97
2018-01-05T08:50:06.640Z,2.90
2018-01-05T08:52:33.740Z,2.50
2018-01-05T08:54:59.927Z,3.53
2018-01-05T08:57:26.822Z,2.30
2018-01-05T08:59:53.135Z,2.40
2018-01-05T09:02:19.290Z,3.03
2018-01-05T09:04:45.556Z,2.97
2018-01-05T09:07:12.514Z,2.70
2018-01-05T09:09:39.435Z,2.77
2018-01-05T09:12:05.668Z,2.10
2018-01-05T09:14:32.576Z,2.30
2018-01-05T09:16:58.742Z,2.03
2018-01-05T09:19:25.652Z,2.00
2018-01-05T09:21:51.898Z,2.70
2018-01-05T09:24:18.082Z,2.53
2018-01-05T09:26:44.328Z,2.23
2018-01-05T09:29:10.650Z,1.97
2018-01-05T09:31:36.828Z,2.40
2018-01-05T09:34:02.992Z,2.60
2018-01-05T09:36:29.223Z,3.30
2018-01-05T09:38:55.384Z,2.67
2018-01-05T09:41:21.550Z,2.60
2018-01-05T09:43:48.494Z,2.10
2018-01-05T09:46:15.436Z,2.30
2018-01-05T09:48:42.319Z,2.50
2018-01-05T09:51:08.587Z,2.03
2018-01-05T09:53:34.807Z,3.10
2018-01-05T09:56:01.817Z,2.10
2018-01-05T09:58:28.024Z,2.07
2018-01-05T10:00:54.942Z,2.37
2018-01-05T10:03:21.935Z,2.10
2018-01-05T10:05:48.069Z,2.10
2018-01-05T10:08:14.206Z,2.27
2018-01-05T10:10:41.089Z,1.60
2018-01-05T10:13:08.012Z,1.60
2018-01-05T10:15:34.235Z,2.00
2018-01-05T10:18:00.462Z,2.47
2018-01-05T10:20:26.662Z,1.97
2018-01-05T10:22:52.879Z,1.70
2018-01-05T10:25:19.096Z,2.67
2018-01-05T10:27:45.300Z,2.30
2018-01-05T10:30:12.256Z,2.30
2018-01-05T10:32:39.198Z,1.97
2018-01-05T10:35:06.423Z,1.60
2018-01-05T10:37:32.706Z,1.47
2018-01-05T10:39:58.968Z,2.23
2018-01-05T10:42:25.162Z,2.00
2018-01-05T10:44:51.376Z,2.10
2018-01-05T10:47:17.583Z,2.20
2018-01-05T10:49:44.490Z,1.40
2018-01-05T10:52:10.694Z,1.97
2018-01-05T10:54:36.904Z,1.83
2018-01-05T10:57:03.826Z,1.70
2018-01-05T10:59:30.342Z,1.73
2018-01-05T11:01:57.266Z,1.53
2018-01-05T11:04:23.445Z,1.47
2018-01-05T11:06:50.413Z,2.13
2018-01-05T11:09:16.640Z,1.70
2018-01-05T11:11:42.860Z,1.43
2018-01-05T11:14:09.771Z,1.73
2018-01-05T11:16:35.975Z,2.00
2018-01-05T11:19:02.124Z,1.57
2018-01-05T11:21:28.263Z,1.67
2018-01-05T11:23:54.387Z,1.40
2018-01-05T11:26:20.543Z,1.50
2018-01-05T11:28:53.643Z,1.70
2018-01-05T11:31:19.866Z,1.87
2018-01-05T11:33:46.080Z,1.30
2018-01-05T11:36:13.052Z,2.33
2018-01-05T11:38:39.243Z,1.67
2018-01-05T11:41:06.135Z,2.57
2018-01-05T11:43:32.274Z,1.90
2018-01-05T11:45:58.447Z,1.93
2018-01-05T11:48:25.352Z,2.20
2018-01-05T11:50:51.532Z,1.80
2018-01-05T11:53:17.692Z,1.67
2018-01-05T11:55:43.880Z,2.40
2018-01-05T11:58:10.762Z,1.97
2018-01-05T12:00:37.029Z,1.73
2018-01-05T12:03:04.002Z,2.67
2018-01-05T12:05:30.170Z,4.70
2018-01-05T12:07:56.383Z,7.37
2018-01-05T12:10:22.591Z,4.23
2018-01-05T12:12:48.771Z,2.70
2018-01-05T12:15:14.963Z,2.20
2018-01-05T12:17:41.132Z,2.20
2018-01-05T12:20:07.342Z,2.00
2018-01-05T12:22:33.555Z,2.37
2018-01-05T12:24:59.730Z,2.33
2018-01-05T12:27:26.702Z,3.20
2018-01-05T12:29:52.948Z,3.80
2018-01-05T12:32:19.094Z,2.90
2018-01-05T12:34:45.362Z,2.00
2018-01-05T12:37:12.331Z,2.47
2018-01-05T12:39:38.537Z,2.10
2018-01-05T12:42:05.506Z,1.87
2018-01-05T12:44:31.723Z,2.03
2018-01-05T12:46:57.943Z,1.90
2018-01-05T12:49:24.917Z,2.10
2018-01-05T12:51:51.146Z,2.23
2018-01-05T12:54:17.367Z,2.70
2018-01-05T12:56:43.587Z,2.60
2018-01-05T12:59:09.788Z,3.00
2018-01-05T13:01:36.049Z,2.70
2018-01-05T13:04:02.217Z,3.13
2018-01-05T13:06:28.453Z,2.87
2018-01-05T13:08:55.387Z,2.20
2018-01-05T13:11:21.555Z,2.17
2018-01-05T13:13:48.543Z,2.03
2018-01-05T13:16:14.713Z,1.80
2018-01-05T13:18:40.935Z,1.90
2018-01-05T13:21:07.174Z,1.87
2018-01-05T13:23:34.123Z,2.03
2018-01-05T13:26:00.993Z,2.53
2018-01-05T13:28:27.190Z,2.30
2018-01-05T13:30:53.337Z,1.80
2018-01-05T13:33:19.550Z,1.90
2018-01-05T13:35:46.509Z,2.17
2018-01-05T13:38:12.770Z,2.20
2018-01-05T13:40:38.914Z,2.90
2018-01-05T13:43:05.134Z,4.50
2018-01-05T13:45:31.327Z,2.77
2018-01-05T13:47:57.525Z,3.07
2018-01-05T13:50:24.423Z,3.20
2018-01-05T13:52:50.637Z,10.80
2018-01-05T13:55:16.841Z,12.90
2018-01-05T13:57:43.790Z,11.60
2018-01-05T14:00:10.749Z,8.67
2018-01-05T14:02:36.949Z,8.13
2018-01-05T14:05:03.893Z,7.83
2018-01-05T14:07:30.795Z,9.50
2018-01-05T14:09:57.009Z,7.20
2018-01-05T14:12:23.177Z,5.07
2018-01-05T14:14:49.415Z,4.30
2018-01-05T14:17:15.635Z,4.10
2018-01-05T14:19:41.880Z,4.07
2018-01-05T14:22:08.840Z,4.50
2018-01-05T14:24:35.053Z,4.33
2018-01-05T14:27:02.000Z,4.77
2018-01-05T14:29:28.940Z,4.70
2018-01-05T14:31:55.879Z,3.93
2018-01-05T14:34:22.029Z,3.73
2018-01-05T14:36:49.266Z,3.43
2018-01-05T14:39:16.222Z,2.90
2018-01-05T14:41:43.146Z,3.43
2018-01-05T14:44:09.299Z,3.00
2018-01-05T14:46:36.216Z,3.67
2018-01-05T14:49:02.436Z,3.07
2018-01-05T14:51:28.576Z,2.53
2018-01-05T14:53:54.786Z,2.57
2018-01-05T14:56:21.061Z,2.97
2018-01-05T14:58:47.269Z,3.93
2018-01-05T15:01:14.216Z,3.63
2018-01-05T15:03:41.150Z,3.07
2018-01-05T15:06:08.126Z,4.07
2018-01-05T15:08:34.367Z,2.10
2018-01-05T15:11:00.654Z,2.50
2018-01-05T15:13:27.672Z,2.73
2018-01-05T15:15:53.804Z,2.50
2018-01-05T15:18:20.258Z,2.27
2018-01-05T15:20:47.182Z,2.43
2018-01-05T15:23:13.862Z,2.20
2018-01-05T15:25:41.250Z,3.10
2018-01-05T15:28:08.190Z,2.17
2018-01-05T15:30:34.509Z,1.93
2018-01-05T15:33:00.805Z,2.50
2018-01-05T15:35:26.984Z,2.20
2018-01-05T15:37:53.207Z,2.37
2018-01-05T15:40:19.369Z,3.20
2018-01-05T15:42:45.587Z,11.63
2018-01-05T15:45:11.809Z,3.30
2018-01-05T15:47:38.038Z,2.67
2018-01-05T15:50:04.265Z,2.27
2018-01-05T15:52:30.491Z,2.40
2018-01-05T15:54:57.571Z,2.90
2018-01-05T15:57:24.987Z,2.50
2018-01-05T15:59:51.160Z,1.77
2018-01-05T16:02:17.636Z,2.30
2018-01-05T16:04:44.170Z,4.50
2018-01-05T16:07:10.428Z,4.30
2018-01-05T16:09:36.715Z,8.80
2018-01-05T16:12:02.941Z,5.27
2018-01-05T16:14:29.212Z,3.33
2018-01-05T16:16:55.415Z,2.47
2018-01-05T16:19:21.680Z,2.60
2018-01-05T16:21:47.878Z,2.30
2018-01-05T16:24:14.056Z,2.07
2018-01-05T16:26:41.067Z,3.10
2018-01-05T16:29:07.273Z,2.10
2018-01-05T16:31:33.531Z,2.20
2018-01-05T16:34:00.449Z,2.83
2018-01-05T16:36:26.692Z,1.93
2018-01-05T16:38:52.889Z,2.50
2018-01-05T16:41:19.057Z,2.37
2018-01-05T16:43:45.226Z,2.63
2018-01-05T16:46:12.144Z,2.80
2018-01-05T16:48:39.022Z,3.60
2018-01-05T16:51:05.952Z,3.57
2018-01-05T16:53:32.131Z,3.80
2018-01-05T16:55:58.347Z,3.20
2018-01-05T16:58:24.558Z,3.70
2018-01-05T17:00:50.743Z,3.60
2018-01-05T17:03:16.946Z,3.57
2018-01-05T17:05:43.160Z,4.30
2018-01-05T17:08:09.366Z,3.80
2018-01-05T17:10:36.275Z,2.93
2018-01-05T17:13:02.523Z,2.60
2018-01-05T17:15:29.431Z,2.10
2018-01-05T17:17:55.583Z,2.00
2018-01-05T17:20:22.517Z,2.17
2018-01-05T17:22:48.721Z,2.20
2018-01-05T17:25:14.950Z,4.00
2018-01-05T17:27:41.200Z,2.53
2018-01-05T17:30:07.950Z,2.93
2018-01-05T17:32:34.887Z,6.03
2018-01-05T17:35:01.257Z,3.50
2018-01-05T17:37:27.454Z,2.53
2018-01-05T17:39:53.637Z,5.60
2018-01-05T17:42:19.907Z,2.60
2018-01-05T17:44:46.840Z,2.80
2018-01-05T17:47:13.194Z,2.60
2018-01-05T17:49:40.131Z,2.23
2018-01-05T17:52:06.370Z,2.30
2018-01-05T17:54:33.278Z,2.40
2018-01-05T17:56:59.462Z,2.20
2018-01-05T17:59:25.689Z,3.93
2018-01-05T18:01:51.960Z,2.43
2018-01-05T18:04:18.148Z,3.20
2018-01-05T18:06:45.120Z,3.07
2018-01-05T18:09:11.353Z,4.50
2018-01-05T18:11:37.576Z,4.17
2018-01-05T18:14:03.725Z,3.90
2018-01-05T18:16:29.839Z,3.60
2018-01-05T18:18:56.092Z,3.93
2018-01-05T18:21:22.289Z,3.90
2018-01-05T18:23:48.460Z,4.57
2018-01-05T18:26:14.702Z,4.37
2018-01-05T18:28:41.641Z,4.30
2018-01-05T18:31:08.630Z,4.53
2018-01-05T18:33:34.841Z,4.80
2018-01-05T18:36:01.041Z,3.93
2018-01-05T18:38:27.254Z,4.00
2018-01-05T18:40:53.429Z,4.80
2018-01-05T18:43:19.630Z,4.40
2018-01-05T18:45:46.551Z,4.70
2018-01-05T18:48:12.794Z,5.00
2018-01-05T18:50:38.948Z,4.40
2018-01-05T18:53:05.162Z,4.37
2018-01-05T18:55:32.124Z,4.50
2018-01-05T18:57:58.280Z,4.50
2018-01-05T19:00:24.599Z,4.43
2018-01-05T19:02:50.839Z,4.33
2018-01-05T19:05:17.003Z,5.03
2018-01-05T19:07:43.176Z,4.40
2018-01-05T19:10:09.360Z,5.87
2018-01-05T19:12:35.535Z,5.33
2018-01-05T19:15:01.738Z,4.67
2018-01-05T19:17:28.832Z,4.83
2018-01-05T19:19:55.044Z,4.10
2018-01-05T19:22:21.224Z,4.13
2018-01-05T19:24:48.229Z,3.80
2018-01-05T19:27:14.457Z,3.93
2018-01-05T19:29:40.684Z,3.80
2018-01-05T19:32:06.975Z,4.40
2018-01-05T19:34:33.167Z,4.00
2018-01-05T19:36:59.284Z,4.23
2018-01-05T19:39:25.535Z,5.53
2018-01-05T19:41:53.297Z,4.47
2018-01-05T19:44:19.568Z,4.17
2018-01-05T19:46:45.791Z,4.63
2018-01-05T19:49:11.989Z,4.63
2018-01-05T19:51:38.998Z,4.60
2018-01-05T19:54:05.228Z,4.40
2018-01-05T19:56:31.446Z,4.23
2018-01-05T19:58:57.703Z,4.93
2018-01-05T20:01:23.951Z,4.83
2018-01-05T20:03:50.123Z,5.77
2018-01-05T20:06:16.342Z,5.17
2018-01-05T20:08:42.621Z,4.67
2018-01-05T20:11:08.811Z,5.13
2018-01-05T20:13:35.028Z,5.10
2018-01-05T20:16:01.291Z,5.37
2018-01-05T20:18:27.450Z,5.67
2018-01-05T20:20:54.460Z,6.20
2018-01-05T20:23:20.714Z,5.93
2018-01-05T20:25:47.830Z,6.00
2018-01-05T20:28:14.104Z,6.20
2018-01-05T20:30:41.127Z,6.23
2018-01-05T20:33:07.283Z,6.57
2018-01-05T20:35:34.287Z,6.57
2018-01-05T20:38:01.515Z,6.90
2018-01-05T20:40:29.037Z,7.33
2018-01-05T20:42:56.000Z,6.80
2018-01-05T20:45:22.216Z,7.03
2018-01-05T20:47:49.185Z,6.40
2018-01-05T20:50:15.395Z,7.43
2018-01-05T20:52:41.598Z,9.47
2018-01-05T20:55:07.768Z,8.63
2018-01-05T20:57:34.003Z,7.77
2018-01-05T21:00:00.198Z,8.30
2018-01-05T21:02:27.147Z,7.90
2018-01-05T21:04:54.087Z,9.37
2018-01-05T21:07:21.065Z,8.80
2018-01-05T21:09:47.291Z,9.27
2018-01-05T21:12:13.498Z,11.27
2018-01-05T21:14:39.750Z,9.80
2018-01-05T21:17:05.939Z,10.30
2018-01-05T21:19:32.848Z,9.27
2018-01-05T21:21:59.136Z,10.00
2018-01-05T21:24:25.422Z,10.80
2018-01-05T21:26:51.587Z,11.33
2018-01-05T21:29:18.649Z,10.60
2018-01-05T21:31:44.813Z,11.00
2018-01-05T21:34:10.974Z,11.47
2018-01-05T21:36:37.927Z,10.53
2018-01-05T21:39:04.848Z,11.37
2018-01-05T21:41:31.067Z,12.40
2018-01-05T21:43:57.994Z,12.47
2018-01-05T21:46:24.246Z,11.27
2018-01-05T21:48:50.422Z,11.20
2018-01-05T21:51:16.693Z,10.73
2018-01-05T21:53:42.985Z,11.50
2018-01-05T21:56:09.148Z,11.40
2018-01-05T21:58:35.387Z,12.60
2018-01-05T22:01:01.610Z,10.93
2018-01-05T22:03:27.776Z,10.70
2018-01-05T22:05:53.982Z,11.70
2018-01-05T22:08:20.909Z,10.90
2018-01-05T22:10:47.136Z,10.47
2018-01-05T22:13:13.302Z,11.57
2018-01-05T22:15:40.267Z,10.50
2018-01-05T22:18:06.490Z,11.03
2018-01-05T22:20:32.777Z,11.50
2018-01-05T22:22:59.019Z,11.00
2018-01-05T22:25:26.074Z,11.20
2018-01-05T22:27:52.960Z,10.90
2018-01-05T22:30:19.179Z,10.30
2018-01-05T22:32:45.338Z,10.90
2018-01-05T22:35:11.526Z,11.80
2018-01-05T22:37:37.691Z,10.80
2018-01-05T22:40:03.874Z,11.53
2018-01-05T22:42:30.065Z,11.50
2018-01-05T22:44:56.217Z,10.80
2018-01-05T22:47:23.153Z,11.87
2018-01-05T22:49:50.081Z,11.83
2018-01-05T22:52:16.249Z,10.97
2018-01-05T22:54:42.364Z,11.17
2018-01-05T22:57:09.316Z,10.50
2018-01-05T22:59:35.513Z,10.83
2018-01-05T23:02:02.477Z,10.83
2018-01-05T23:04:29.447Z,10.83
2018-01-05T23:06:55.699Z,10.60
2018-01-05T23:09:21.942Z,9.93
2018-01-05T23:11:48.139Z,11.10
2018-01-05T23:14:14.331Z,11.03
2018-01-05T23:16:41.239Z,11.60
2018-01-05T23:19:07.458Z,11.30
2018-01-05T23:21:33.690Z,13.20
2018-01-05T23:23:59.926Z,14.30
2018-01-05T23:26:26.099Z,15.30
2018-01-05T23:28:52.251Z,16.83
2018-01-05T23:31:18.397Z,16.77
2018-01-05T23:33:44.624Z,15.57
2018-01-05T23:36:10.821Z,16.87
2018-01-05T23:38:37.054Z,15.17
2018-01-05T23:41:03.350Z,14.07
2018-01-05T23:43:30.262Z,12.67
2018-01-05T23:45:56.549Z,13.30
2018-01-05T23:48:23.440Z,13.53
2018-01-05T23:50:49.577Z,13.47
2018-01-05T23:53:15.762Z,13.40
2018-01-05T23:55:41.989Z,13.10
2018-01-05T23:58:08.167Z,13.20
